Time;durP1;ratioP1;P1;durP2;ratioP2;P2;SDS_P1;SDS_P2;PMS_P1;PMS_P2;Temp;Humidity;BMP_temperature;BMP_pressure;BME280_temperature;BME280_humidity;BME280_pressure;Samples;Min_cycle;Max_cycle;Signal;HPM_P1;HPM_P2
2021/09/22 00:01:43;;;;;;;7.40;4.40;;;;;;;8.04;87.80;97305.80;115802;1196;26731;-82
2021/09/22 00:04:14;;;;;;;7.20;4.80;;;;;;;8.02;87.99;97298.27;115851;1196;27263;-82
2021/09/22 00:06:44;;;;;;;10.20;5.40;;;;;;;8.00;87.99;97295.07;115763;1196;33077;-82
2021/09/22 00:09:15;;;;;;;7.50;5.20;;;;;;;8.00;88.12;97287.94;115761;1196;39469;-82
2021/09/22 00:11:46;;;;;;;8.20;5.50;;;;;;;8.01;88.26;97290.42;115747;1196;25945;-82
2021/09/22 00:14:17;;;;;;;8.90;5.20;;;;;;;8.03;88.39;97290.80;115756;1196;28551;-82
2021/09/22 00:16:48;;;;;;;6.90;4.60;;;;;;;8.04;88.42;97280.23;115781;1196;30148;-81
2021/09/22 00:19:19;;;;;;;7.00;4.30;;;;;;;8.01;88.42;97278.44;115794;1196;26639;-81
2021/09/22 00:21:49;;;;;;;8.10;5.30;;;;;;;8.03;88.48;97273.05;115821;1195;27968;-81
2021/09/22 00:24:20;;;;;;;7.30;5.40;;;;;;;7.99;88.71;97270.19;115755;1196;32837;-82
2021/09/22 00:26:51;;;;;;;10.60;6.00;;;;;;;7.95;88.86;97270.93;115813;1195;28571;-82
2021/09/22 00:29:22;;;;;;;8.70;5.60;;;;;;;7.93;88.89;97268.85;115793;1195;28920;-81
2021/09/22 00:31:52;;;;;;;8.70;5.40;;;;;;;7.92;88.85;97268.79;115820;1196;28028;-81
2021/09/22 00:34:23;;;;;;;9.40;5.50;;;;;;;7.93;88.87;97265.30;115857;1190;43101;-81
2021/09/22 00:36:54;;;;;;;7.80;5.20;;;;;;;7.94;89.01;97260.78;115820;1196;24420;-81
2021/09/22 00:39:24;;;;;;;6.70;5.10;;;;;;;7.93;89.02;97263.36;115804;1196;27467;-81
2021/09/22 00:41:55;;;;;;;8.20;4.90;;;;;;;7.88;89.16;97259.54;115818;1189;28100;-81
2021/09/22 00:44:26;;;;;;;8.80;4.90;;;;;;;7.85;89.30;97261.86;115854;1195;30326;-83
2021/09/22 00:46:57;;;;;;;7.40;5.20;;;;;;;7.84;89.25;97260.59;115679;1190;30845;-82
2021/09/22 00:49:27;;;;;;;6.80;5.00;;;;;;;7.85;89.35;97258.33;115772;1195;49227;-81
2021/09/22 00:51:58;;;;;;;8.90;5.40;;;;;;;7.83;89.49;97252.45;115799;1196;29195;-82
2021/09/22 00:54:29;;;;;;;5.90;4.30;;;;;;;7.81;89.50;97254.38;115808;1196;28158;-81
2021/09/22 00:57:00;;;;;;;6.80;4.40;;;;;;;7.80;89.64;97251.78;115758;1195;43527;-82
2021/09/22 00:59:31;;;;;;;5.70;4.60;;;;;;;7.79;89.78;97250.51;115799;1196;30028;-82
2021/09/22 01:02:02;;;;;;;7.80;4.90;;;;;;;7.78;89.89;97245.42;115784;1195;26937;-81
2021/09/22 01:04:33;;;;;;;8.50;4.50;;;;;;;7.78;89.90;97241.10;115804;1196;27352;-82
2021/09/22 01:07:05;;;;;;;6.30;4.50;;;;;;;7.80;89.93;97235.84;115833;1196;28553;-81
2021/09/22 01:09:37;;;;;;;5.40;4.20;;;;;;;7.78;90.08;97236.83;115836;1196;29164;-81
2021/09/22 01:12:09;;;;;;;5.10;3.80;;;;;;;7.74;90.06;97234.14;115828;1196;26925;-81
2021/09/22 01:14:40;;;;;;;6.40;4.10;;;;;;;7.77;90.12;97231.53;115889;1196;29141;-81
2021/09/22 01:17:11;;;;;;;6.10;3.80;;;;;;;7.78;90.18;97231.60;115806;1196;25564;-81
2021/09/22 01:19:41;;;;;;;5.40;3.70;;;;;;;7.79;90.25;97225.64;115732;1196;30079;-81
2021/09/22 01:22:17;;;;;;;4.40;3.40;;;;;;;7.82;90.32;97219.88;115805;1195;30076;-81
2021/09/22 01:24:48;;;;;;;5.10;3.40;;;;;;;7.84;90.28;97212.13;115833;1196;27907;-81
2021/09/22 01:27:19;;;;;;;6.60;3.30;;;;;;;7.84;90.10;97208.17;115828;1195;26336;-81
2021/09/22 01:29:50;;;;;;;4.00;3.20;;;;;;;7.87;90.15;97210.27;115844;1195;27731;-81
2021/09/22 01:32:22;;;;;;;4.50;2.90;;;;;;;7.88;90.10;97213.41;115894;1193;25533;-82
2021/09/22 01:34:53;;;;;;;5.10;3.50;;;;;;;7.88;89.99;97206.09;115868;1195;24211;-81
2021/09/22 01:37:24;;;;;;;5.80;3.60;;;;;;;7.87;89.91;97201.23;115833;1195;29816;-82
2021/09/22 01:39:54;;;;;;;4.20;3.10;;;;;;;7.87;89.91;97194.95;115824;1195;28600;-81
2021/09/22 01:42:25;;;;;;;5.10;3.30;;;;;;;7.85;90.05;97187.96;115868;1190;29679;-82
2021/09/22 01:44:56;;;;;;;4.80;3.30;;;;;;;7.81;90.03;97185.48;115779;1196;26593;-82
2021/09/22 01:47:27;;;;;;;4.20;3.10;;;;;;;7.79;90.07;97183.05;115824;1195;38737;-82
2021/09/22 01:50:01;;;;;;;;;;;;;;;7.79;90.12;97183.98;115813;1196;28058;-83
2021/09/22 01:52:33;;;;;;;6.00;3.20;;;;;;;7.79;90.39;97184.15;115775;1195;28870;-81
2021/09/22 01:55:06;;;;;;;5.40;2.90;;;;;;;7.77;90.35;97184.86;115788;1195;34713;-82
2021/09/22 01:57:37;;;;;;;4.00;2.80;;;;;;;7.78;90.40;97178.98;115893;1183;25739;-82
2021/09/22 02:00:10;;;;;;;4.80;2.50;;;;;;;7.84;90.37;97179.34;115906;1195;29102;-81
2021/09/22 02:02:41;;;;;;;5.80;2.80;;;;;;;7.87;90.35;97179.53;115893;1189;31011;-82
2021/09/22 02:05:12;;;;;;;3.60;2.60;;;;;;;7.90;90.34;97175.30;115813;1196;31678;-81
2021/09/22 02:07:42;;;;;;;4.80;2.60;;;;;;;7.92;90.37;97170.59;115812;1195;70904;-80
2021/09/22 02:10:13;;;;;;;2.80;2.20;;;;;;;7.91;90.17;97165.82;115804;1195;29009;-81
2021/09/22 02:12:44;;;;;;;3.70;2.30;;;;;;;7.91;89.94;97162.55;115809;1196;28670;-81
2021/09/22 02:15:15;;;;;;;3.10;2.00;;;;;;;7.89;89.90;97155.71;115782;1196;29834;-81
2021/09/22 02:17:46;;;;;;;3.30;2.20;;;;;;;7.87;89.91;97160.69;115830;1195;27022;-81
2021/09/22 02:20:17;;;;;;;3.40;2.40;;;;;;;7.85;89.84;97158.55;115839;1196;28289;-81
2021/09/22 02:22:48;;;;;;;3.00;2.20;;;;;;;7.87;89.95;97150.98;115745;1192;29011;-81
2021/09/22 02:25:19;;;;;;;2.30;2.10;;;;;;;7.89;89.90;97150.96;115836;1196;29852;-81
2021/09/22 02:27:50;;;;;;;2.90;1.90;;;;;;;7.93;90.15;97147.14;115790;1196;27837;-81
2021/09/22 02:30:23;;;;;;;3.40;2.00;;;;;;;7.98;89.92;97149.40;115847;1195;28496;-82
2021/09/22 02:32:54;;;;;;;3.90;2.80;;;;;;;7.96;89.87;97142.89;115748;1195;28976;-82
2021/09/22 02:35:25;;;;;;;3.20;2.30;;;;;;;7.91;89.98;97139.10;115797;1195;30007;-81
2021/09/22 02:37:55;;;;;;;4.30;2.00;;;;;;;7.88;90.16;97136.17;115814;1196;53648;-82
2021/09/22 02:40:26;;;;;;;2.10;1.60;;;;;;;7.87;90.13;97130.70;115789;1196;26892;-81
2021/09/22 02:42:57;;;;;;;4.00;2.20;;;;;;;7.86;90.02;97131.16;115674;1196;30016;-82
2021/09/22 02:45:28;;;;;;;3.10;2.20;;;;;;;7.87;90.19;97124.21;115784;1196;28543;-81
2021/09/22 02:47:59;;;;;;;2.80;2.40;;;;;;;7.90;90.18;97127.16;115823;1195;29227;-81
2021/09/22 02:50:29;;;;;;;2.90;1.70;;;;;;;7.92;90.30;97132.24;115766;1196;31631;-82
2021/09/22 02:53:00;;;;;;;2.70;1.80;;;;;;;7.96;90.34;97131.55;115782;1196;27764;-82
2021/09/22 02:55:31;;;;;;;3.00;1.70;;;;;;;7.99;90.36;97129.93;115855;1195;26367;-82
2021/09/22 02:58:01;;;;;;;2.40;1.60;;;;;;;7.99;90.12;97131.98;115833;1195;25615;-82
2021/09/22 03:00:32;;;;;;;2.70;1.40;;;;;;;7.91;89.86;97130.19;115820;1196;26519;-81
2021/09/22 03:03:03;;;;;;;1.90;1.00;;;;;;;7.88;89.81;97126.91;115823;1195;28203;-81
2021/09/22 03:05:34;;;;;;;3.00;1.30;;;;;;;7.84;89.54;97120.84;115833;1195;25655;-81
2021/09/22 03:08:05;;;;;;;1.80;1.10;;;;;;;7.80;89.61;97123.88;115811;1190;30510;-82
2021/09/22 03:10:36;;;;;;;1.80;1.30;;;;;;;7.75;89.62;97126.04;115838;1195;28745;-82
2021/09/22 03:13:07;;;;;;;1.30;1.10;;;;;;;7.71;89.59;97126.98;115766;1196;25487;-82
2021/09/22 03:15:36;;;;;;;;;;;;;;;7.68;89.47;97116.25;115869;1196;27820;-82
2021/09/22 03:18:07;;;;;;;1.50;1.10;;;;;;;7.64;89.47;97113.89;115830;1195;39178;-82
2021/09/22 03:20:38;;;;;;;1.40;1.00;;;;;;;7.59;89.62;97110.55;115904;1195;27743;-82
2021/09/22 03:23:08;;;;;;;1.90;1.20;;;;;;;7.56;89.71;97105.13;115900;1196;29688;-82
2021/09/22 03:25:39;;;;;;;1.90;1.20;;;;;;;7.54;89.90;97102.73;115857;1195;28687;-82
2021/09/22 03:28:10;;;;;;;2.50;1.50;;;;;;;7.50;90.16;97099.90;115813;1196;27225;-82
2021/09/22 03:30:42;;;;;;;2.50;1.80;;;;;;;7.47;90.33;97099.23;115856;1196;29928;-82
2021/09/22 03:33:13;;;;;;;2.90;1.70;;;;;;;7.43;90.65;97093.99;115773;1196;27779;-82
2021/09/22 03:35:44;;;;;;;3.90;2.20;;;;;;;7.41;90.76;97091.17;115775;1195;43078;-82
2021/09/22 03:38:15;;;;;;;2.20;1.80;;;;;;;7.39;91.13;97087.68;115798;1195;31540;-82
2021/09/22 03:40:46;;;;;;;3.50;2.20;;;;;;;7.36;91.28;97095.41;115784;1196;29177;-82
2021/09/22 03:43:16;;;;;;;2.00;1.80;;;;;;;7.36;91.19;97098.15;115811;1196;28396;-82
2021/09/22 03:45:47;;;;;;;2.50;2.20;;;;;;;7.36;91.01;97089.45;115819;1190;27963;-82
2021/09/22 03:48:18;;;;;;;2.20;1.60;;;;;;;7.36;91.00;97098.84;115811;1195;28802;-82
2021/09/22 03:50:50;;;;;;;2.40;1.60;;;;;;;7.36;91.00;97094.93;115775;1195;28991;-82
2021/09/22 03:53:21;;;;;;;2.60;1.70;;;;;;;7.36;90.95;97093.66;115810;1195;33649;-82
2021/09/22 03:55:52;;;;;;;2.60;2.00;;;;;;;7.35;90.92;97096.45;115789;1195;55992;-82
2021/09/22 03:58:23;;;;;;;2.60;1.60;;;;;;;7.34;91.21;97094.44;115812;1195;30321;-82
2021/09/22 04:00:54;;;;;;;2.30;1.50;;;;;;;7.32;91.25;97099.41;115856;1189;25621;-82
2021/09/22 04:03:24;;;;;;;2.10;1.50;;;;;;;7.29;91.35;97092.92;115817;1195;30204;-82
2021/09/22 04:05:55;;;;;;;2.90;1.70;;;;;;;7.28;91.04;97097.50;115810;1196;29067;-82
2021/09/22 04:08:26;;;;;;;2.40;1.70;;;;;;;7.28;91.04;97096.04;115811;1196;30447;-83
2021/09/22 04:10:57;;;;;;;1.40;1.30;;;;;;;7.30;91.21;97099.95;115746;1196;33406;-80
2021/09/22 04:13:26;;;;;;;;;;;;;;;7.29;91.00;97104.64;115789;1195;33994;-82
2021/09/22 04:15:56;;;;;;;2.10;1.50;;;;;;;7.24;90.63;97099.73;115857;1195;33028;-81
2021/09/22 04:18:28;;;;;;;1.40;1.10;;;;;;;7.23;90.74;97103.73;115831;1195;27693;-83
2021/09/22 04:20:59;;;;;;;3.40;1.80;;;;;;;7.24;90.87;97099.67;115814;1195;28403;-82
2021/09/22 04:23:30;;;;;;;2.20;1.50;;;;;;;7.23;90.66;97101.56;115853;1195;25533;-83
2021/09/22 04:26:00;;;;;;;3.20;1.90;;;;;;;7.24;90.74;97098.05;115843;1195;27746;-81
2021/09/22 04:28:31;;;;;;;2.30;1.90;;;;;;;7.27;90.89;97100.71;115805;1196;29615;-81
2021/09/22 04:31:02;;;;;;;4.50;2.40;;;;;;;7.26;90.83;97100.27;115818;1196;26297;-81
2021/09/22 04:33:31;;;;;;;;;;;;;;;7.25;91.05;97101.95;115809;1195;26583;-81
2021/09/22 04:36:02;;;;;;;4.60;2.50;;;;;;;7.20;91.29;97099.26;115813;1195;29031;-82
2021/09/22 04:38:34;;;;;;;4.30;2.80;;;;;;;7.14;91.34;97097.39;115844;1195;29477;-81
2021/09/22 04:41:05;;;;;;;3.50;2.10;;;;;;;7.10;91.32;97104.04;115733;1196;32803;-81
2021/09/22 04:43:36;;;;;;;2.70;2.20;;;;;;;7.10;91.36;97103.45;115822;1181;34168;-81
2021/09/22 04:46:07;;;;;;;3.50;2.50;;;;;;;7.10;91.45;97107.45;115789;1196;27591;-82
2021/09/22 04:48:39;;;;;;;3.10;2.30;;;;;;;7.09;91.31;97107.40;115831;1196;34455;-83
2021/09/22 04:51:10;;;;;;;4.40;2.50;;;;;;;7.12;91.41;97111.13;115823;1196;29840;-81
2021/09/22 04:53:41;;;;;;;3.70;2.70;;;;;;;7.14;91.35;97108.98;115882;1195;27452;-82
2021/09/22 04:56:12;;;;;;;4.20;3.00;;;;;;;7.14;91.42;97107.30;115861;1195;28469;-81
2021/09/22 04:58:45;;;;;;;5.40;3.50;;;;;;;7.09;91.50;97108.55;115762;1196;26072;-81
2021/09/22 05:01:16;;;;;;;4.70;2.90;;;;;;;7.05;91.80;97111.27;115758;1195;35409;-81
2021/09/22 05:03:47;;;;;;;5.40;3.10;;;;;;;7.05;91.77;97107.91;115753;1191;32580;-81
2021/09/22 05:06:18;;;;;;;3.70;2.80;;;;;;;7.09;91.75;97104.18;115771;1196;32807;-81
2021/09/22 05:08:49;;;;;;;4.50;3.00;;;;;;;7.12;91.98;97105.22;115739;1195;75525;-81
2021/09/22 05:11:20;;;;;;;4.80;2.70;;;;;;;7.15;91.96;97105.73;115843;1195;29503;-81
2021/09/22 05:13:51;;;;;;;5.20;3.10;;;;;;;7.20;92.13;97105.49;115703;1196;77282;-82
2021/09/22 05:16:22;;;;;;;4.50;2.60;;;;;;;7.19;92.11;97105.27;115786;1195;29471;-81
2021/09/22 05:18:53;;;;;;;3.70;2.40;;;;;;;7.14;92.24;97112.25;115778;1195;24986;-80
2021/09/22 05:21:24;;;;;;;4.00;2.90;;;;;;;7.13;92.35;97109.09;115811;1195;56044;-81
2021/09/22 05:23:55;;;;;;;16.50;8.80;;;;;;;7.17;92.46;97105.95;115831;1195;26470;-81
2021/09/22 05:26:26;;;;;;;8.60;4.20;;;;;;;7.16;92.58;97115.23;115787;1195;28581;-81
2021/09/22 05:28:57;;;;;;;9.40;6.40;;;;;;;7.16;92.32;97119.13;115787;1196;34280;-81
2021/09/22 05:31:28;;;;;;;6.00;3.60;;;;;;;7.19;92.47;97124.46;115827;1196;24528;-81
2021/09/22 05:34:01;;;;;;;7.50;4.50;;;;;;;7.20;92.66;97123.52;115826;1196;27791;-82
2021/09/22 05:36:31;;;;;;;4.30;2.80;;;;;;;7.25;92.49;97126.01;115789;1189;31077;-81
2021/09/22 05:39:03;;;;;;;12.50;5.80;;;;;;;7.24;92.45;97123.79;115779;1196;28207;-81
2021/09/22 05:41:35;;;;;;;11.30;5.90;;;;;;;7.27;92.54;97123.02;115808;1196;46088;-81
2021/09/22 05:44:06;;;;;;;37.70;20.70;;;;;;;7.28;92.44;97126.67;115802;1196;30673;-81
2021/09/22 05:46:37;;;;;;;11.70;6.30;;;;;;;7.31;92.63;97128.34;115797;1189;29186;-81
2021/09/22 05:49:08;;;;;;;5.40;3.50;;;;;;;7.35;92.60;97125.89;115851;1195;28571;-81
2021/09/22 05:51:39;;;;;;;5.20;3.30;;;;;;;7.39;92.49;97127.30;115880;1195;28495;-81
2021/09/22 05:54:10;;;;;;;5.10;3.10;;;;;;;7.42;92.57;97130.55;115818;1195;63861;-82
2021/09/22 05:56:39;;;;;;;;;;;;;;;7.42;92.55;97130.23;115903;1195;32384;-81
2021/09/22 05:59:10;;;;;;;5.50;2.80;;;;;;;7.39;92.51;97129.15;115875;1195;27785;-81
2021/09/22 06:01:41;;;;;;;5.50;3.20;;;;;;;7.35;92.51;97128.77;115757;1196;26813;-81
2021/09/22 06:04:12;;;;;;;4.20;2.60;;;;;;;7.35;92.48;97130.05;115816;1189;31728;-80
2021/09/22 06:06:43;;;;;;;9.00;4.80;;;;;;;7.35;92.58;97137.17;115753;1195;30932;-80
2021/09/22 06:09:14;;;;;;;4.80;2.80;;;;;;;7.36;92.54;97136.92;115740;1196;30916;-80
2021/09/22 06:11:45;;;;;;;3.80;2.30;;;;;;;7.35;92.66;97138.86;115802;1195;31463;-81
2021/09/22 06:14:16;;;;;;;4.50;2.90;;;;;;;7.33;92.59;97136.41;115795;1196;29398;-80
2021/09/22 06:16:47;;;;;;;3.90;2.60;;;;;;;7.35;92.72;97139.65;115809;1195;41666;-82
2021/09/22 06:19:17;;;;;;;5.10;2.90;;;;;;;7.39;92.67;97143.34;115775;1195;25419;-81
2021/09/22 06:21:48;;;;;;;7.80;4.60;;;;;;;7.41;92.58;97145.89;115803;1196;27029;-81
2021/09/22 06:24:19;;;;;;;4.80;3.20;;;;;;;7.40;92.85;97139.60;115789;1196;31038;-80
2021/09/22 06:26:50;;;;;;;4.80;3.30;;;;;;;7.39;92.53;97140.75;115800;1195;26159;-82
2021/09/22 06:29:21;;;;;;;4.60;3.00;;;;;;;7.40;92.69;97137.06;115802;1196;26529;-83
2021/09/22 06:31:51;;;;;;;4.10;2.70;;;;;;;7.35;92.70;97143.08;115672;1196;29967;-81
2021/09/22 06:34:23;;;;;;;20.80;13.70;;;;;;;7.33;92.65;97152.23;115722;1196;27070;-81
2021/09/22 06:36:53;;;;;;;5.20;4.00;;;;;;;7.36;92.87;97150.79;115831;1195;28768;-80
2021/09/22 06:39:24;;;;;;;8.00;5.10;;;;;;;7.35;92.90;97146.45;115803;1195;28585;-81
2021/09/22 06:41:56;;;;;;;6.60;3.80;;;;;;;7.35;92.84;97149.46;115792;1195;28610;-82
2021/09/22 06:44:27;;;;;;;5.20;3.40;;;;;;;7.40;92.84;97151.42;115836;1195;27522;-81
2021/09/22 06:46:58;;;;;;;24.30;14.00;;;;;;;7.48;93.02;97152.21;115815;1195;27770;-81
2021/09/22 06:49:28;;;;;;;7.00;4.70;;;;;;;7.48;93.06;97150.98;115794;1196;24295;-82
2021/09/22 06:52:00;;;;;;;9.20;5.90;;;;;;;7.44;92.93;97150.67;115759;1196;26980;-81
2021/09/22 06:54:32;;;;;;;8.10;5.60;;;;;;;7.48;92.96;97150.16;115829;1190;27889;-82
2021/09/22 06:57:04;;;;;;;5.60;4.10;;;;;;;7.51;92.93;97150.50;115808;1196;26664;-82
2021/09/22 06:59:35;;;;;;;7.70;4.50;;;;;;;7.56;93.16;97151.56;115862;1195;32643;-81
2021/09/22 07:02:05;;;;;;;8.20;5.00;;;;;;;7.60;92.78;97151.62;115791;1195;35643;-81
2021/09/22 07:04:36;;;;;;;5.70;3.50;;;;;;;7.61;92.60;97156.02;115869;1195;27517;-81
2021/09/22 07:07:07;;;;;;;7.20;3.80;;;;;;;7.62;92.62;97155.88;115866;1195;36146;-81
2021/09/22 07:09:38;;;;;;;13.30;9.20;;;;;;;7.60;92.64;97159.13;115811;1195;38514;-81
2021/09/22 07:12:09;;;;;;;4.30;3.10;;;;;;;7.64;92.80;97156.38;115935;1195;26210;-81
2021/09/22 07:14:40;;;;;;;6.20;4.50;;;;;;;7.60;92.76;97160.71;115907;1195;31838;-81
2021/09/22 07:17:10;;;;;;;32.10;17.50;;;;;;;7.63;92.89;97161.27;115837;1195;30371;-81
2021/09/22 07:19:39;;;;;;;;;;;;;;;7.67;92.78;97163.16;115815;1196;28426;-81
2021/09/22 07:22:10;;;;;;;7.80;4.50;;;;;;;7.67;92.98;97162.10;115846;1195;46732;-81
2021/09/22 07:24:42;;;;;;;9.10;4.40;;;;;;;7.64;92.89;97163.86;115839;1196;25406;-81
2021/09/22 07:27:13;;;;;;;6.40;4.20;;;;;;;7.61;92.89;97164.78;115770;1195;76555;-81
2021/09/22 07:29:44;;;;;;;8.10;4.90;;;;;;;7.61;92.93;97168.64;115842;1195;26482;-81
2021/09/22 07:32:15;;;;;;;12.90;7.10;;;;;;;7.67;93.03;97171.48;115841;1195;38175;-82
2021/09/22 07:34:46;;;;;;;10.80;7.30;;;;;;;7.72;93.18;97170.49;115808;1190;29605;-81
2021/09/22 07:37:18;;;;;;;12.10;8.20;;;;;;;7.76;93.06;97167.92;115665;1196;31534;-80
2021/09/22 07:39:49;;;;;;;6.50;4.40;;;;;;;7.78;92.93;97172.54;115706;1196;28378;-81
2021/09/22 07:42:20;;;;;;;8.00;5.40;;;;;;;7.81;92.80;97175.94;115783;1195;26317;-81
2021/09/22 07:44:54;;;;;;;10.70;8.10;;;;;;;7.81;92.69;97185.80;115818;1195;32243;-81
2021/09/22 07:47:24;;;;;;;7.70;5.80;;;;;;;7.79;92.61;97186.74;115818;1195;28658;-82
2021/09/22 07:49:55;;;;;;;30.90;17.40;;;;;;;7.76;92.73;97187.08;115835;1195;26258;-81
2021/09/22 07:52:26;;;;;;;27.70;13.90;;;;;;;7.70;92.83;97183.66;115831;1195;28314;-81
2021/09/22 07:54:59;;;;;;;17.90;9.70;;;;;;;7.69;93.02;97186.60;115794;1196;28221;-82
2021/09/22 07:57:30;;;;;;;12.00;7.30;;;;;;;7.65;92.98;97186.83;115865;1195;29088;-81
2021/09/22 08:00:01;;;;;;;8.50;5.50;;;;;;;7.64;93.14;97184.34;115827;1189;28507;-83
2021/09/22 08:02:32;;;;;;;6.90;4.70;;;;;;;7.65;93.32;97184.94;115839;1195;27121;-82
2021/09/22 08:05:03;;;;;;;7.10;5.00;;;;;;;7.72;93.57;97187.54;115804;1195;29530;-81
2021/09/22 08:07:34;;;;;;;6.30;4.30;;;;;;;7.72;93.70;97189.66;115853;1195;26961;-81
2021/09/22 08:10:06;;;;;;;8.60;5.00;;;;;;;7.69;93.45;97188.94;115833;1195;30014;-82
2021/09/22 08:12:37;;;;;;;8.10;5.00;;;;;;;7.67;93.48;97190.02;115804;1195;30323;-82
2021/09/22 08:15:09;;;;;;;7.80;5.50;;;;;;;7.68;93.63;97201.54;115843;1195;29901;-81
2021/09/22 08:17:40;;;;;;;7.90;4.90;;;;;;;7.67;93.67;97201.21;115924;1195;27672;-81
2021/09/22 08:20:16;;;;;;;7.20;4.60;;;;;;;7.67;93.78;97205.48;115848;1196;28179;-81
2021/09/22 08:22:48;;;;;;;8.00;6.20;;;;;;;7.65;93.77;97205.95;115706;1196;26831;-81
2021/09/22 08:25:20;;;;;;;5.40;4.10;;;;;;;7.67;93.99;97212.35;115795;1190;25947;-82
2021/09/22 08:27:50;;;;;;;4.50;3.30;;;;;;;7.68;93.71;97215.63;115791;1195;31098;-80
2021/09/22 08:30:21;;;;;;;4.40;3.00;;;;;;;7.72;93.83;97219.59;115794;1195;29588;-81
2021/09/22 08:32:52;;;;;;;4.70;3.20;;;;;;;7.79;93.98;97220.05;115809;1195;25688;-81
2021/09/22 08:35:23;;;;;;;4.50;3.40;;;;;;;7.81;94.01;97219.81;115794;1196;26970;-82
2021/09/22 08:37:54;;;;;;;4.60;3.00;;;;;;;7.82;93.83;97218.66;115820;1195;28220;-81
2021/09/22 08:40:25;;;;;;;4.60;2.70;;;;;;;7.83;93.77;97216.77;115818;1195;30478;-82
2021/09/22 08:42:56;;;;;;;3.10;2.00;;;;;;;7.86;93.43;97211.67;115797;1195;26928;-81
2021/09/22 08:45:28;;;;;;;3.10;2.30;;;;;;;7.89;93.16;97211.25;115811;1195;25820;-82
2021/09/22 08:48:00;;;;;;;4.90;2.30;;;;;;;7.95;93.17;97213.37;115817;1195;32300;-81
2021/09/22 08:50:30;;;;;;;4.10;2.60;;;;;;;8.02;93.07;97215.98;115835;1195;28243;-81
2021/09/22 08:53:01;;;;;;;2.50;2.10;;;;;;;8.08;92.72;97216.86;115802;1196;32250;-81
2021/09/22 08:55:32;;;;;;;4.50;2.50;;;;;;;8.14;92.69;97217.48;115825;1195;30524;-81
2021/09/22 08:58:03;;;;;;;2.50;2.00;;;;;;;8.20;92.44;97217.58;115823;1191;39528;-81
2021/09/22 09:00:34;;;;;;;3.20;2.40;;;;;;;8.30;92.35;97220.49;115788;1195;29328;-82
2021/09/22 09:03:05;;;;;;;4.00;2.30;;;;;;;8.43;92.59;97221.81;115748;1195;80420;-82
2021/09/22 09:05:36;;;;;;;4.20;2.20;;;;;;;8.54;92.43;97225.88;115824;1195;31094;-82
2021/09/22 09:08:10;;;;;;;4.40;2.80;;;;;;;8.66;92.37;97226.31;115777;1196;28130;-82
2021/09/22 09:11:00;;;;;;;4.30;2.90;;;;;;;8.91;92.77;97229.17;115740;1196;29842;-82
2021/09/22 09:13:32;;;;;;;5.40;3.20;;;;;;;9.09;92.71;97223.39;115821;1195;31333;-82
2021/09/22 09:16:16;;;;;;;3.90;2.90;;;;;;;9.29;92.78;97226.77;115827;1195;33285;-82
2021/09/22 09:18:49;;;;;;;4.80;3.40;;;;;;;9.41;91.99;97230.00;115794;1195;29631;-81
2021/09/22 09:21:20;;;;;;;5.80;2.80;;;;;;;9.39;91.17;97233.49;115838;1195;28148;-82
2021/09/22 09:23:53;;;;;;;3.90;3.00;;;;;;;9.37;91.13;97234.33;115817;1195;28828;-81
2021/09/22 09:26:26;;;;;;;6.50;3.30;;;;;;;9.34;91.18;97237.70;115810;1195;26311;-82
2021/09/22 09:28:59;;;;;;;4.80;3.50;;;;;;;9.35;91.32;97238.35;115815;1195;37456;-82
2021/09/22 09:31:34;;;;;;;5.30;3.00;;;;;;;9.44;91.54;97234.48;115855;1195;26384;-83
2021/09/22 09:34:08;;;;;;;4.60;3.40;;;;;;;9.53;91.39;97230.73;115799;1195;28080;-81
2021/09/22 09:36:45;;;;;;;6.00;3.50;;;;;;;9.67;91.35;97227.77;115847;1196;27298;-82
2021/09/22 09:39:20;;;;;;;2.90;2.60;;;;;;;9.76;90.85;97221.75;115745;1196;82055;-81
2021/09/22 09:41:53;;;;;;;6.20;3.10;;;;;;;9.79;90.05;97221.98;115745;1195;33068;-82
2021/09/22 09:44:26;;;;;;;3.70;2.90;;;;;;;9.83;90.06;97222.94;115777;1196;28859;-82
2021/09/22 09:47:09;;;;;;;8.70;4.70;;;;;;;9.93;90.12;97227.33;115853;1195;27369;-81
2021/09/22 09:49:41;;;;;;;5.80;3.80;;;;;;;9.94;89.73;97226.42;115895;1194;28277;-82
2021/09/22 09:52:11;;;;;;;5.90;4.00;;;;;;;9.80;88.65;97221.45;115866;1195;33078;-81
2021/09/22 09:54:52;;;;;;;6.90;5.40;;;;;;;9.62;88.43;97223.21;115826;1195;27984;-82
2021/09/22 09:57:22;;;;;;;;;;;;;;;9.64;88.81;97226.55;115698;1190;30240;-82
2021/09/22 09:59:54;;;;;;;5.70;4.20;;;;;;;9.60;88.66;97224.95;115594;1198;28959;-82
2021/09/22 10:02:32;;;;;;;5.40;3.70;;;;;;;9.57;88.86;97220.75;115719;1190;30923;-81
2021/09/22 10:05:04;;;;;;;5.30;3.60;;;;;;;9.68;89.05;97229.97;115664;1190;27475;-81
2021/09/22 10:07:47;;;;;;;6.30;3.40;;;;;;;9.82;88.64;97225.73;115555;1197;28749;-82
2021/09/22 10:10:18;;;;;;;4.10;3.00;;;;;;;9.87;88.44;97230.23;115590;1196;50490;-79
2021/09/22 10:12:49;;;;;;;4.60;3.30;;;;;;;9.83;88.25;97227.61;115741;1196;27983;-82
2021/09/22 10:15:20;;;;;;;5.60;3.80;;;;;;;9.78;88.19;97231.17;115740;1196;29264;-82
2021/09/22 10:17:53;;;;;;;3.60;3.20;;;;;;;9.71;88.12;97239.89;115702;1196;30365;-82
2021/09/22 10:20:24;;;;;;;7.10;4.30;;;;;;;9.62;88.17;97235.60;115770;1195;29242;-82
2021/09/22 10:22:55;;;;;;;4.70;3.60;;;;;;;9.53;88.02;97239.66;115721;1196;24760;-82
2021/09/22 10:25:27;;;;;;;4.80;3.50;;;;;;;9.42;87.52;97240.30;115705;1190;27557;-82
2021/09/22 10:27:58;;;;;;;10.40;6.10;;;;;;;9.31;87.27;97242.23;115619;1197;30513;-82
2021/09/22 10:30:37;;;;;;;7.20;4.40;;;;;;;9.22;87.11;97236.66;115697;1190;25087;-82
2021/09/22 10:33:24;;;;;;;5.40;4.10;;;;;;;9.16;87.06;97238.90;115628;1197;27137;-83
2021/09/22 10:35:58;;;;;;;6.00;4.20;;;;;;;9.15;87.55;97236.63;115774;1196;24983;-82
2021/09/22 10:38:52;;;;;;;4.80;3.30;;;;;;;9.19;88.03;97235.64;115614;1189;33287;-83
2021/09/22 10:41:33;;;;;;;6.10;3.50;;;;;;;9.25;88.21;97234.08;115614;1190;30195;-83
2021/09/22 10:44:04;;;;;;;5.40;3.50;;;;;;;9.35;88.42;97236.54;115653;1196;70171;-81
2021/09/22 10:46:35;;;;;;;5.00;3.50;;;;;;;9.47;88.79;97239.48;115717;1196;29770;-81
2021/09/22 10:49:15;;;;;;;5.20;3.60;;;;;;;9.57;88.45;97236.69;115745;1196;32222;-82
2021/09/22 10:51:49;;;;;;;4.60;3.00;;;;;;;9.64;87.95;97236.61;115723;1189;27305;-81
2021/09/22 10:54:23;;;;;;;5.50;3.40;;;;;;;9.70;87.45;97236.85;115663;1197;33874;-82
2021/09/22 10:56:57;;;;;;;9.50;4.20;;;;;;;9.73;87.27;97236.95;115646;1196;32352;-81
2021/09/22 10:59:39;;;;;;;7.40;4.10;;;;;;;9.74;87.05;97242.88;115725;1196;31641;-82
2021/09/22 11:02:11;;;;;;;6.60;4.20;;;;;;;9.68;86.32;97237.59;115877;1196;24652;-82
2021/09/22 11:05:00;;;;;;;7.20;4.30;;;;;;;9.59;85.86;97236.17;115765;1196;32943;-82
2021/09/22 11:08:03;;;;;;;5.80;3.60;;;;;;;9.58;86.15;97233.52;115641;1196;32330;-82
2021/09/22 11:10:44;;;;;;;5.90;3.00;;;;;;;9.54;85.85;97228.18;115692;1196;70169;-82
2021/09/22 11:13:39;;;;;;;5.00;2.90;;;;;;;9.59;86.26;97227.59;115744;1196;28175;-81
2021/09/22 11:16:14;;;;;;;5.50;3.70;;;;;;;9.69;86.52;97230.70;115851;1189;29627;-81
2021/09/22 11:18:50;;;;;;;6.80;4.30;;;;;;;9.74;85.76;97235.14;115726;1196;29984;-82
2021/09/22 11:21:24;;;;;;;5.30;3.80;;;;;;;9.79;85.80;97230.66;115759;1189;49614;-82
2021/09/22 11:23:55;;;;;;;5.40;3.90;;;;;;;9.92;85.88;97230.77;115792;1196;31905;-82
2021/09/22 11:26:26;;;;;;;6.40;4.00;;;;;;;10.00;85.65;97238.02;115766;1195;30989;-82
2021/09/22 11:28:59;;;;;;;5.70;3.60;;;;;;;10.09;85.81;97236.24;115797;1195;29918;-82
2021/09/22 11:31:37;;;;;;;5.30;3.50;;;;;;;10.15;85.51;97237.02;115769;1195;28063;-83
2021/09/22 11:34:08;;;;;;;5.30;2.90;;;;;;;10.09;85.27;97237.94;115789;1196;29304;-81
2021/09/22 11:36:39;;;;;;;4.90;3.30;;;;;;;9.93;84.23;97234.96;115837;1196;30145;-83
2021/09/22 11:39:26;;;;;;;6.70;3.90;;;;;;;9.81;83.91;97237.39;115744;1193;33476;-83
2021/09/22 11:41:58;;;;;;;5.70;3.60;;;;;;;9.80;84.45;97234.31;115747;1193;37934;-82
2021/09/22 11:44:31;;;;;;;6.90;4.50;;;;;;;9.80;84.25;97232.46;115699;1196;34418;-83
2021/09/22 11:47:04;;;;;;;8.40;5.20;;;;;;;9.81;84.74;97231.67;115831;1196;34745;-82
2021/09/22 11:49:39;;;;;;;5.50;4.10;;;;;;;9.82;84.44;97232.04;115708;1191;28357;-82
2021/09/22 11:52:16;;;;;;;7.90;5.10;;;;;;;9.73;84.07;97234.08;115757;1195;34050;-82
2021/09/22 11:54:53;;;;;;;8.70;4.80;;;;;;;9.66;84.62;97236.04;115766;1189;33516;-82
2021/09/22 11:57:28;;;;;;;6.10;4.30;;;;;;;9.60;84.44;97233.79;115752;1195;30940;-83